Tallulah, Louisiana
Current Conditions -  °F | °C
As of 9:53 AM on Wednesday 26 Nov 2014 (Local Time) from KTVR Reporting Station
Clear Clear  
Wind Chill: 54°   Ceiling: Unl
Heat Index: 54°   Visibility: 10mi
Dew Point: 37°   Wind: 8mph
Humidity: 53%   Direction: 220°SW
Pressure: 30.2"   Gusts: NA
Location:  32.41°N, 91.19°W
Report Text: KTVR 261553Z AUTO 22007KT 10SM CLR 12/03 A3020 RMK AO2 SLP233 T01220028
Loading
Personal Weather Stations






























Interactive Weather Map New forecast layout! Learn more

10-Day Weather Forecast

Advertisements
Track Severe Weather on mobile